sensor_id;sensor_type;location;lat;lon;timestamp;P1;durP1;ratioP1;P2;durP2;ratioP2
39176;SDS011;24904;52.208;21.192;2023-05-16T00:04:10;6.20;;;4.50;;
39176;SDS011;24904;52.208;21.192;2023-05-16T00:09:13;9.20;;;4.60;;
39176;SDS011;24904;52.208;21.192;2023-05-16T00:14:16;5.50;;;4.30;;
39176;SDS011;24904;52.208;21.192;2023-05-16T00:19:19;5.90;;;5.10;;
39176;SDS011;24904;52.208;21.192;2023-05-16T00:24:23;6.20;;;4.90;;
39176;SDS011;24904;52.208;21.192;2023-05-16T00:29:26;10.70;;;5.60;;
39176;SDS011;24904;52.208;21.192;2023-05-16T00:34:29;9.90;;;5.30;;
39176;SDS011;24904;52.208;21.192;2023-05-16T00:39:32;6.40;;;5.30;;
39176;SDS011;24904;52.208;21.192;2023-05-16T00:44:35;7.70;;;4.90;;
39176;SDS011;24904;52.208;21.192;2023-05-16T00:49:40;8.50;;;5.40;;
39176;SDS011;24904;52.208;21.192;2023-05-16T00:54:43;12.00;;;5.50;;
39176;SDS011;24904;52.208;21.192;2023-05-16T00:59:47;6.60;;;5.30;;
39176;SDS011;24904;52.208;21.192;2023-05-16T01:04:51;11.60;;;5.80;;
39176;SDS011;24904;52.208;21.192;2023-05-16T01:09:55;6.70;;;4.80;;
39176;SDS011;24904;52.208;21.192;2023-05-16T01:15:01;7.20;;;5.60;;
39176;SDS011;24904;52.208;21.192;2023-05-16T01:20:10;6.60;;;5.70;;
39176;SDS011;24904;52.208;21.192;2023-05-16T01:25:25;8.10;;;5.70;;
39176;SDS011;24904;52.208;21.192;2023-05-16T01:35:46;6.60;;;5.90;;
39176;SDS011;24904;52.208;21.192;2023-05-16T01:40:56;7.90;;;6.40;;
39176;SDS011;24904;52.208;21.192;2023-05-16T01:46:07;8.30;;;5.60;;
39176;SDS011;24904;52.208;21.192;2023-05-16T01:51:13;7.80;;;6.20;;
39176;SDS011;24904;52.208;21.192;2023-05-16T01:56:16;8.90;;;6.30;;
39176;SDS011;24904;52.208;21.192;2023-05-16T02:01:22;8.90;;;6.90;;
39176;SDS011;24904;52.208;21.192;2023-05-16T02:06:25;10.90;;;8.00;;
39176;SDS011;24904;52.208;21.192;2023-05-16T02:11:30;7.50;;;6.70;;
39176;SDS011;24904;52.208;21.192;2023-05-16T02:16:33;9.30;;;7.00;;
39176;SDS011;24904;52.208;21.192;2023-05-16T02:21:36;10.00;;;7.00;;
39176;SDS011;24904;52.208;21.192;2023-05-16T02:26:40;7.90;;;7.00;;
39176;SDS011;24904;52.208;21.192;2023-05-16T02:31:43;9.50;;;7.50;;
39176;SDS011;24904;52.208;21.192;2023-05-16T02:36:46;12.00;;;7.20;;
39176;SDS011;24904;52.208;21.192;2023-05-16T02:41:49;15.50;;;8.00;;
39176;SDS011;24904;52.208;21.192;2023-05-16T02:46:52;10.40;;;7.10;;
39176;SDS011;24904;52.208;21.192;2023-05-16T02:51:55;8.50;;;6.90;;
39176;SDS011;24904;52.208;21.192;2023-05-16T02:56:58;9.40;;;7.40;;
39176;SDS011;24904;52.208;21.192;2023-05-16T03:02:01;11.70;;;7.60;;
39176;SDS011;24904;52.208;21.192;2023-05-16T03:07:05;12.80;;;7.30;;
39176;SDS011;24904;52.208;21.192;2023-05-16T03:12:08;9.50;;;7.30;;
39176;SDS011;24904;52.208;21.192;2023-05-16T03:17:11;8.80;;;7.40;;
39176;SDS011;24904;52.208;21.192;2023-05-16T03:22:14;17.90;;;8.10;;
39176;SDS011;24904;52.208;21.192;2023-05-16T03:27:17;8.50;;;7.00;;
39176;SDS011;24904;52.208;21.192;2023-05-16T03:32:20;10.00;;;6.90;;
39176;SDS011;24904;52.208;21.192;2023-05-16T03:37:23;9.10;;;6.70;;
39176;SDS011;24904;52.208;21.192;2023-05-16T03:42:26;9.50;;;7.30;;
39176;SDS011;24904;52.208;21.192;2023-05-16T03:47:29;11.20;;;7.70;;
39176;SDS011;24904;52.208;21.192;2023-05-16T03:52:32;9.50;;;7.00;;
39176;SDS011;24904;52.208;21.192;2023-05-16T03:57:36;10.60;;;7.10;;
39176;SDS011;24904;52.208;21.192;2023-05-16T04:02:39;8.50;;;7.40;;
39176;SDS011;24904;52.208;21.192;2023-05-16T04:07:43;8.80;;;7.30;;
39176;SDS011;24904;52.208;21.192;2023-05-16T04:12:45;10.80;;;8.00;;
39176;SDS011;24904;52.208;21.192;2023-05-16T04:17:48;12.10;;;7.80;;
39176;SDS011;24904;52.208;21.192;2023-05-16T04:29:25;10.90;;;7.80;;
39176;SDS011;24904;52.208;21.192;2023-05-16T04:34:29;10.50;;;8.70;;
39176;SDS011;24904;52.208;21.192;2023-05-16T04:39:34;11.50;;;7.60;;
39176;SDS011;24904;52.208;21.192;2023-05-16T04:44:37;9.00;;;7.10;;
39176;SDS011;24904;52.208;21.192;2023-05-16T04:49:41;8.70;;;6.70;;
39176;SDS011;24904;52.208;21.192;2023-05-16T04:54:44;7.50;;;6.60;;
39176;SDS011;24904;52.208;21.192;2023-05-16T04:59:47;8.00;;;6.40;;
39176;SDS011;24904;52.208;21.192;2023-05-16T05:04:50;8.20;;;6.30;;
39176;SDS011;24904;52.208;21.192;2023-05-16T05:09:53;9.50;;;6.10;;
39176;SDS011;24904;52.208;21.192;2023-05-16T05:14:56;10.10;;;5.90;;
39176;SDS011;24904;52.208;21.192;2023-05-16T05:19:59;8.40;;;6.00;;
39176;SDS011;24904;52.208;21.192;2023-05-16T05:25:07;11.00;;;6.10;;
39176;SDS011;24904;52.208;21.192;2023-05-16T05:30:11;9.90;;;5.80;;
39176;SDS011;24904;52.208;21.192;2023-05-16T05:35:15;8.20;;;6.50;;
39176;SDS011;24904;52.208;21.192;2023-05-16T05:40:18;8.40;;;6.20;;
39176;SDS011;24904;52.208;21.192;2023-05-16T05:45:21;7.90;;;6.50;;
39176;SDS011;24904;52.208;21.192;2023-05-16T05:50:24;8.90;;;6.40;;
39176;SDS011;24904;52.208;21.192;2023-05-16T05:55:27;15.80;;;6.40;;
39176;SDS011;24904;52.208;21.192;2023-05-16T06:00:30;11.30;;;6.50;;
39176;SDS011;24904;52.208;21.192;2023-05-16T06:05:33;9.40;;;7.00;;
39176;SDS011;24904;52.208;21.192;2023-05-16T06:10:36;8.30;;;6.80;;
39176;SDS011;24904;52.208;21.192;2023-05-16T06:15:39;10.70;;;7.00;;
39176;SDS011;24904;52.208;21.192;2023-05-16T06:20:42;9.00;;;6.70;;
39176;SDS011;24904;52.208;21.192;2023-05-16T06:25:46;9.60;;;7.00;;
39176;SDS011;24904;52.208;21.192;2023-05-16T06:30:49;10.40;;;6.90;;
39176;SDS011;24904;52.208;21.192;2023-05-16T06:35:52;8.80;;;6.60;;
39176;SDS011;24904;52.208;21.192;2023-05-16T06:40:55;12.70;;;7.50;;
39176;SDS011;24904;52.208;21.192;2023-05-16T06:45:58;13.00;;;7.10;;
39176;SDS011;24904;52.208;21.192;2023-05-16T06:51:01;9.80;;;7.20;;
39176;SDS011;24904;52.208;21.192;2023-05-16T06:56:04;11.20;;;7.40;;
39176;SDS011;24904;52.208;21.192;2023-05-16T07:01:08;9.10;;;7.30;;
39176;SDS011;24904;52.208;21.192;2023-05-16T07:06:11;9.30;;;6.80;;
39176;SDS011;24904;52.208;21.192;2023-05-16T07:11:14;9.40;;;7.50;;
39176;SDS011;24904;52.208;21.192;2023-05-16T07:16:17;9.30;;;7.70;;
39176;SDS011;24904;52.208;21.192;2023-05-16T07:21:20;11.90;;;7.80;;
39176;SDS011;24904;52.208;21.192;2023-05-16T07:26:23;10.30;;;8.30;;
39176;SDS011;24904;52.208;21.192;2023-05-16T07:31:26;13.40;;;8.40;;
39176;SDS011;24904;52.208;21.192;2023-05-16T07:36:29;11.80;;;8.40;;
39176;SDS011;24904;52.208;21.192;2023-05-16T07:41:33;8.90;;;6.20;;
39176;SDS011;24904;52.208;21.192;2023-05-16T07:46:36;8.10;;;6.20;;
39176;SDS011;24904;52.208;21.192;2023-05-16T07:51:39;8.50;;;5.70;;
39176;SDS011;24904;52.208;21.192;2023-05-16T07:56:42;6.40;;;5.10;;
39176;SDS011;24904;52.208;21.192;2023-05-16T08:01:46;9.90;;;5.80;;
39176;SDS011;24904;52.208;21.192;2023-05-16T08:06:49;5.80;;;5.20;;
39176;SDS011;24904;52.208;21.192;2023-05-16T08:11:52;6.00;;;4.30;;
39176;SDS011;24904;52.208;21.192;2023-05-16T08:16:55;4.30;;;3.90;;
39176;SDS011;24904;52.208;21.192;2023-05-16T08:21:58;6.10;;;3.80;;
39176;SDS011;24904;52.208;21.192;2023-05-16T08:27:02;4.70;;;3.30;;
39176;SDS011;24904;52.208;21.192;2023-05-16T08:40:58;4.20;;;3.10;;
39176;SDS011;24904;52.208;21.192;2023-05-16T08:46:17;3.80;;;2.80;;
39176;SDS011;24904;52.208;21.192;2023-05-16T08:51:28;5.80;;;2.70;;
39176;SDS011;24904;52.208;21.192;2023-05-16T08:56:41;6.40;;;2.60;;
39176;SDS011;24904;52.208;21.192;2023-05-16T09:01:52;4.50;;;2.80;;
39176;SDS011;24904;52.208;21.192;2023-05-16T09:07:01;4.80;;;2.70;;
39176;SDS011;24904;52.208;21.192;2023-05-16T09:12:09;3.50;;;2.70;;
39176;SDS011;24904;52.208;21.192;2023-05-16T09:17:17;5.70;;;2.70;;
39176;SDS011;24904;52.208;21.192;2023-05-16T09:22:25;5.00;;;2.90;;
39176;SDS011;24904;52.208;21.192;2023-05-16T09:27:34;6.00;;;2.70;;
39176;SDS011;24904;52.208;21.192;2023-05-16T09:32:43;5.10;;;3.20;;
39176;SDS011;24904;52.208;21.192;2023-05-16T09:43:02;3.90;;;3.10;;
39176;SDS011;24904;52.208;21.192;2023-05-16T09:48:11;3.30;;;2.60;;
39176;SDS011;24904;52.208;21.192;2023-05-16T09:53:18;5.40;;;3.00;;
39176;SDS011;24904;52.208;21.192;2023-05-16T09:58:31;4.60;;;3.60;;
39176;SDS011;24904;52.208;21.192;2023-05-16T10:03:40;4.10;;;3.20;;
39176;SDS011;24904;52.208;21.192;2023-05-16T10:08:48;5.70;;;3.40;;
39176;SDS011;24904;52.208;21.192;2023-05-16T10:13:56;3.30;;;2.40;;
39176;SDS011;24904;52.208;21.192;2023-05-16T10:19:04;4.10;;;2.50;;
39176;SDS011;24904;52.208;21.192;2023-05-16T10:24:17;4.90;;;2.40;;
39176;SDS011;24904;52.208;21.192;2023-05-16T10:29:30;4.70;;;2.20;;
39176;SDS011;24904;52.208;21.192;2023-05-16T10:34:39;7.40;;;2.60;;
39176;SDS011;24904;52.208;21.192;2023-05-16T10:39:48;3.30;;;2.00;;
39176;SDS011;24904;52.208;21.192;2023-05-16T10:44:58;3.50;;;2.10;;
39176;SDS011;24904;52.208;21.192;2023-05-16T10:56:03;4.20;;;1.80;;
39176;SDS011;24904;52.208;21.192;2023-05-16T11:01:18;8.30;;;2.00;;
39176;SDS011;24904;52.208;21.192;2023-05-16T11:06:29;3.10;;;1.60;;
39176;SDS011;24904;52.208;21.192;2023-05-16T11:11:42;3.40;;;2.00;;
39176;SDS011;24904;52.208;21.192;2023-05-16T11:17:37;5.90;;;2.00;;
39176;SDS011;24904;52.208;21.192;2023-05-16T11:22:46;5.20;;;2.00;;
39176;SDS011;24904;52.208;21.192;2023-05-16T11:27:54;3.10;;;1.70;;
39176;SDS011;24904;52.208;21.192;2023-05-16T11:33:03;3.90;;;1.50;;
39176;SDS011;24904;52.208;21.192;2023-05-16T11:38:14;2.70;;;2.00;;
39176;SDS011;24904;52.208;21.192;2023-05-16T11:43:23;2.80;;;1.70;;
39176;SDS011;24904;52.208;21.192;2023-05-16T11:48:31;5.30;;;1.90;;
39176;SDS011;24904;52.208;21.192;2023-05-16T11:53:39;3.80;;;1.80;;
39176;SDS011;24904;52.208;21.192;2023-05-16T11:58:49;2.50;;;1.70;;
39176;SDS011;24904;52.208;21.192;2023-05-16T12:03:58;1.90;;;1.50;;
39176;SDS011;24904;52.208;21.192;2023-05-16T12:09:10;4.60;;;1.50;;
39176;SDS011;24904;52.208;21.192;2023-05-16T12:14:18;2.50;;;1.90;;
39176;SDS011;24904;52.208;21.192;2023-05-16T12:19:31;3.40;;;1.60;;
39176;SDS011;24904;52.208;21.192;2023-05-16T12:24:40;6.60;;;1.90;;
39176;SDS011;24904;52.208;21.192;2023-05-16T12:29:49;3.80;;;1.90;;
39176;SDS011;24904;52.208;21.192;2023-05-16T12:35:00;3.00;;;2.00;;
39176;SDS011;24904;52.208;21.192;2023-05-16T12:40:10;4.30;;;1.90;;
39176;SDS011;24904;52.208;21.192;2023-05-16T12:45:21;5.20;;;2.10;;
39176;SDS011;24904;52.208;21.192;2023-05-16T12:50:32;2.90;;;1.80;;
39176;SDS011;24904;52.208;21.192;2023-05-16T12:55:43;3.20;;;1.90;;
39176;SDS011;24904;52.208;21.192;2023-05-16T13:00:51;3.20;;;1.80;;
39176;SDS011;24904;52.208;21.192;2023-05-16T13:06:01;3.30;;;1.70;;
39176;SDS011;24904;52.208;21.192;2023-05-16T13:11:11;9.40;;;3.10;;
39176;SDS011;24904;52.208;21.192;2023-05-16T13:16:19;7.40;;;2.00;;
39176;SDS011;24904;52.208;21.192;2023-05-16T13:21:30;2.70;;;1.80;;
39176;SDS011;24904;52.208;21.192;2023-05-16T13:26:38;3.50;;;2.00;;
39176;SDS011;24904;52.208;21.192;2023-05-16T13:31:47;2.60;;;2.00;;
39176;SDS011;24904;52.208;21.192;2023-05-16T13:36:56;4.60;;;2.10;;
39176;SDS011;24904;52.208;21.192;2023-05-16T13:42:07;3.20;;;2.20;;
39176;SDS011;24904;52.208;21.192;2023-05-16T13:47:18;3.80;;;2.10;;
39176;SDS011;24904;52.208;21.192;2023-05-16T13:52:27;3.70;;;1.80;;
39176;SDS011;24904;52.208;21.192;2023-05-16T13:57:40;2.60;;;1.80;;
39176;SDS011;24904;52.208;21.192;2023-05-16T14:02:54;3.70;;;2.10;;
39176;SDS011;24904;52.208;21.192;2023-05-16T14:08:04;4.40;;;2.60;;
39176;SDS011;24904;52.208;21.192;2023-05-16T14:13:10;2.70;;;2.10;;
39176;SDS011;24904;52.208;21.192;2023-05-16T14:18:15;5.20;;;2.40;;
39176;SDS011;24904;52.208;21.192;2023-05-16T14:23:19;3.10;;;2.00;;
39176;SDS011;24904;52.208;21.192;2023-05-16T14:28:22;6.80;;;3.00;;
39176;SDS011;24904;52.208;21.192;2023-05-16T14:33:25;4.00;;;2.90;;
39176;SDS011;24904;52.208;21.192;2023-05-16T14:38:28;4.50;;;2.60;;
39176;SDS011;24904;52.208;21.192;2023-05-16T14:43:31;9.90;;;2.70;;
39176;SDS011;24904;52.208;21.192;2023-05-16T14:48:34;4.20;;;2.40;;
39176;SDS011;24904;52.208;21.192;2023-05-16T14:53:38;4.90;;;2.00;;
39176;SDS011;24904;52.208;21.192;2023-05-16T14:58:41;4.20;;;2.70;;
39176;SDS011;24904;52.208;21.192;2023-05-16T15:03:45;6.00;;;2.60;;
39176;SDS011;24904;52.208;21.192;2023-05-16T15:08:49;3.10;;;1.90;;
39176;SDS011;24904;52.208;21.192;2023-05-16T15:13:53;7.30;;;2.00;;
39176;SDS011;24904;52.208;21.192;2023-05-16T15:18:58;4.60;;;2.30;;
39176;SDS011;24904;52.208;21.192;2023-05-16T15:24:03;5.70;;;2.50;;
39176;SDS011;24904;52.208;21.192;2023-05-16T15:29:08;3.90;;;2.10;;
39176;SDS011;24904;52.208;21.192;2023-05-16T15:34:12;3.50;;;2.20;;
39176;SDS011;24904;52.208;21.192;2023-05-16T15:39:16;4.60;;;2.00;;
39176;SDS011;24904;52.208;21.192;2023-05-16T15:44:20;4.10;;;2.30;;
39176;SDS011;24904;52.208;21.192;2023-05-16T15:49:28;6.90;;;2.50;;
39176;SDS011;24904;52.208;21.192;2023-05-16T15:54:33;4.90;;;2.20;;
39176;SDS011;24904;52.208;21.192;2023-05-16T15:59:39;3.80;;;2.00;;
39176;SDS011;24904;52.208;21.192;2023-05-16T16:04:44;3.40;;;2.20;;
39176;SDS011;24904;52.208;21.192;2023-05-16T16:09:50;3.10;;;2.20;;
39176;SDS011;24904;52.208;21.192;2023-05-16T16:14:55;3.00;;;2.30;;
39176;SDS011;24904;52.208;21.192;2023-05-16T16:19:59;3.90;;;2.10;;
39176;SDS011;24904;52.208;21.192;2023-05-16T16:25:04;2.90;;;2.10;;
39176;SDS011;24904;52.208;21.192;2023-05-16T16:30:10;7.50;;;4.70;;
39176;SDS011;24904;52.208;21.192;2023-05-16T16:35:14;4.30;;;2.60;;
39176;SDS011;24904;52.208;21.192;2023-05-16T16:40:18;3.90;;;2.50;;
39176;SDS011;24904;52.208;21.192;2023-05-16T16:45:23;4.20;;;2.70;;
39176;SDS011;24904;52.208;21.192;2023-05-16T16:50:27;4.50;;;3.10;;
39176;SDS011;24904;52.208;21.192;2023-05-16T16:55:30;10.50;;;3.40;;
39176;SDS011;24904;52.208;21.192;2023-05-16T17:00:34;3.00;;;2.50;;
39176;SDS011;24904;52.208;21.192;2023-05-16T17:05:38;4.10;;;3.00;;
39176;SDS011;24904;52.208;21.192;2023-05-16T17:10:43;5.20;;;2.50;;
39176;SDS011;24904;52.208;21.192;2023-05-16T17:15:48;8.50;;;2.70;;
39176;SDS011;24904;52.208;21.192;2023-05-16T17:20:53;6.50;;;3.10;;
39176;SDS011;24904;52.208;21.192;2023-05-16T17:25:57;4.60;;;2.60;;
39176;SDS011;24904;52.208;21.192;2023-05-16T17:31:00;4.20;;;2.90;;
39176;SDS011;24904;52.208;21.192;2023-05-16T17:36:23;4.00;;;2.90;;
39176;SDS011;24904;52.208;21.192;2023-05-16T17:41:28;4.30;;;3.10;;
39176;SDS011;24904;52.208;21.192;2023-05-16T17:46:33;6.60;;;4.30;;
39176;SDS011;24904;52.208;21.192;2023-05-16T17:57:43;7.20;;;3.30;;
39176;SDS011;24904;52.208;21.192;2023-05-16T18:02:48;3.90;;;2.80;;
39176;SDS011;24904;52.208;21.192;2023-05-16T18:08:13;7.70;;;3.30;;
39176;SDS011;24904;52.208;21.192;2023-05-16T18:13:18;9.60;;;3.50;;
39176;SDS011;24904;52.208;21.192;2023-05-16T18:18:24;7.00;;;3.00;;
39176;SDS011;24904;52.208;21.192;2023-05-16T18:24:07;4.50;;;2.90;;
39176;SDS011;24904;52.208;21.192;2023-05-16T18:29:33;5.50;;;3.20;;
39176;SDS011;24904;52.208;21.192;2023-05-16T18:34:38;8.60;;;3.90;;
39176;SDS011;24904;52.208;21.192;2023-05-16T18:39:43;5.20;;;3.90;;
39176;SDS011;24904;52.208;21.192;2023-05-16T18:44:50;7.40;;;4.60;;
39176;SDS011;24904;52.208;21.192;2023-05-16T18:49:55;9.80;;;5.00;;
39176;SDS011;24904;52.208;21.192;2023-05-16T18:55:00;14.40;;;10.00;;
39176;SDS011;24904;52.208;21.192;2023-05-16T19:00:06;15.10;;;9.80;;
39176;SDS011;24904;52.208;21.192;2023-05-16T19:05:13;10.60;;;7.60;;
39176;SDS011;24904;52.208;21.192;2023-05-16T19:10:20;9.90;;;5.20;;
39176;SDS011;24904;52.208;21.192;2023-05-16T19:15:26;7.60;;;4.40;;
39176;SDS011;24904;52.208;21.192;2023-05-16T19:20:31;12.90;;;4.80;;
39176;SDS011;24904;52.208;21.192;2023-05-16T19:25:37;7.20;;;4.90;;
39176;SDS011;24904;52.208;21.192;2023-05-16T19:30:47;6.00;;;4.80;;
39176;SDS011;24904;52.208;21.192;2023-05-16T19:35:53;6.00;;;4.50;;
39176;SDS011;24904;52.208;21.192;2023-05-16T19:41:16;6.60;;;4.40;;
39176;SDS011;24904;52.208;21.192;2023-05-16T19:55:08;6.90;;;4.20;;
39176;SDS011;24904;52.208;21.192;2023-05-16T20:00:12;5.20;;;4.40;;
39176;SDS011;24904;52.208;21.192;2023-05-16T20:05:16;7.20;;;5.00;;
39176;SDS011;24904;52.208;21.192;2023-05-16T20:10:22;7.80;;;6.10;;
39176;SDS011;24904;52.208;21.192;2023-05-16T20:15:25;14.60;;;6.70;;
39176;SDS011;24904;52.208;21.192;2023-05-16T20:20:29;11.70;;;6.50;;
39176;SDS011;24904;52.208;21.192;2023-05-16T20:25:32;9.10;;;6.50;;
39176;SDS011;24904;52.208;21.192;2023-05-16T20:30:54;8.50;;;6.60;;
39176;SDS011;24904;52.208;21.192;2023-05-16T20:36:00;12.40;;;7.50;;
39176;SDS011;24904;52.208;21.192;2023-05-16T20:41:05;8.20;;;5.90;;
39176;SDS011;24904;52.208;21.192;2023-05-16T20:46:10;12.50;;;6.50;;
39176;SDS011;24904;52.208;21.192;2023-05-16T20:51:15;9.20;;;7.10;;
39176;SDS011;24904;52.208;21.192;2023-05-16T20:56:21;12.20;;;7.50;;
39176;SDS011;24904;52.208;21.192;2023-05-16T21:01:27;12.10;;;7.80;;
39176;SDS011;24904;52.208;21.192;2023-05-16T21:06:32;15.20;;;8.60;;
39176;SDS011;24904;52.208;21.192;2023-05-16T21:11:37;13.90;;;8.80;;
39176;SDS011;24904;52.208;21.192;2023-05-16T21:17:02;16.10;;;9.90;;
39176;SDS011;24904;52.208;21.192;2023-05-16T21:22:07;10.50;;;8.20;;
39176;SDS011;24904;52.208;21.192;2023-05-16T21:27:12;12.10;;;8.10;;
39176;SDS011;24904;52.208;21.192;2023-05-16T21:32:18;10.50;;;8.20;;
39176;SDS011;24904;52.208;21.192;2023-05-16T21:37:23;11.20;;;7.90;;
39176;SDS011;24904;52.208;21.192;2023-05-16T21:42:28;10.70;;;9.00;;
39176;SDS011;24904;52.208;21.192;2023-05-16T21:47:34;11.60;;;8.40;;
39176;SDS011;24904;52.208;21.192;2023-05-16T21:52:39;15.10;;;8.80;;
39176;SDS011;24904;52.208;21.192;2023-05-16T21:57:44;11.90;;;8.90;;
39176;SDS011;24904;52.208;21.192;2023-05-16T22:02:49;11.90;;;9.20;;
39176;SDS011;24904;52.208;21.192;2023-05-16T22:07:55;16.00;;;10.10;;
39176;SDS011;24904;52.208;21.192;2023-05-16T22:13:00;14.20;;;9.60;;
39176;SDS011;24904;52.208;21.192;2023-05-16T22:18:05;14.10;;;9.90;;
39176;SDS011;24904;52.208;21.192;2023-05-16T22:23:10;13.30;;;9.80;;
39176;SDS011;24904;52.208;21.192;2023-05-16T22:28:15;14.30;;;10.60;;
39176;SDS011;24904;52.208;21.192;2023-05-16T22:33:21;13.20;;;9.70;;
39176;SDS011;24904;52.208;21.192;2023-05-16T22:38:26;15.70;;;11.30;;
39176;SDS011;24904;52.208;21.192;2023-05-16T22:43:32;15.00;;;10.40;;
39176;SDS011;24904;52.208;21.192;2023-05-16T22:48:37;11.30;;;9.20;;
39176;SDS011;24904;52.208;21.192;2023-05-16T22:53:42;14.10;;;9.80;;
39176;SDS011;24904;52.208;21.192;2023-05-16T22:58:48;13.70;;;9.80;;
39176;SDS011;24904;52.208;21.192;2023-05-16T23:03:53;11.40;;;10.00;;
39176;SDS011;24904;52.208;21.192;2023-05-16T23:08:58;15.30;;;11.00;;
39176;SDS011;24904;52.208;21.192;2023-05-16T23:14:24;14.90;;;10.80;;
39176;SDS011;24904;52.208;21.192;2023-05-16T23:19:29;15.00;;;12.60;;
39176;SDS011;24904;52.208;21.192;2023-05-16T23:24:35;17.80;;;12.60;;
39176;SDS011;24904;52.208;21.192;2023-05-16T23:29:40;18.00;;;12.00;;
39176;SDS011;24904;52.208;21.192;2023-05-16T23:34:45;17.50;;;11.10;;
39176;SDS011;24904;52.208;21.192;2023-05-16T23:39:50;17.30;;;11.60;;
39176;SDS011;24904;52.208;21.192;2023-05-16T23:44:55;17.90;;;13.30;;
39176;SDS011;24904;52.208;21.192;2023-05-16T23:50:01;19.00;;;12.80;;
39176;SDS011;24904;52.208;21.192;2023-05-16T23:55:07;15.20;;;11.80;;
